Time;durP1;ratioP1;P1;durP2;ratioP2;P2;SDS_P1;SDS_P2;PMS_P1;PMS_P2;Temp;Humidity;BMP_temperature;BMP_pressure;BME280_temperature;BME280_humidity;BME280_pressure;Samples;Min_cycle;Max_cycle;Signal;HPM_P1;HPM_P2
2022/06/02 00:02:12;;;;;;;2.03;1.92;;;14.30;86.60;;;;;;5051927;28;20025;-45
2022/06/02 00:04:53;;;;;;;3.45;1.85;;;14.10;86.90;;;;;;5052203;28;20072;-46
2022/06/02 00:07:32;;;;;;;3.47;2.15;;;14.00;87.70;;;;;;5051591;28;20056;-45
2022/06/02 00:10:10;;;;;;;4.80;2.10;;;14.00;87.60;;;;;;5052177;28;20484;-43
2022/06/02 00:12:56;;;;;;;1.80;1.70;;;14.00;87.10;;;;;;5052125;28;20025;-43
2022/06/02 00:15:26;;;;;;;;;;;14.00;87.20;;;;;;5052477;28;20103;-45
2022/06/02 00:18:03;;;;;;;3.22;2.47;;;14.00;89.00;;;;;;5052257;28;20372;-44
2022/06/02 00:20:48;;;;;;;2.45;2.05;;;13.90;90.00;;;;;;5052112;28;20033;-45
2022/06/02 00:23:16;;;;;;;2.35;2.10;;;13.90;88.20;;;;;;5052289;28;20032;-47
2022/06/02 00:26:14;;;;;;;2.05;1.85;;;14.00;86.30;;;;;;5052113;28;20021;-44
2022/06/02 00:28:52;;;;;;;2.85;1.50;;;14.00;86.90;;;;;;5050712;28;20052;-46
2022/06/02 00:31:30;;;;;;;5.68;2.00;;;14.00;88.20;;;;;;5052174;28;20037;-44
2022/06/02 00:34:14;;;;;;;1.40;1.23;;;13.90;88.90;;;;;;5052331;28;20100;-45
2022/06/02 00:36:48;;;;;;;1.70;1.60;;;13.90;89.10;;;;;;5055526;28;20033;-47
2022/06/02 00:39:16;;;;;;;1.70;1.60;;;13.80;89.00;;;;;;5056180;28;20109;-44
2022/06/02 00:41:58;;;;;;;2.13;1.83;;;13.80;88.50;;;;;;5056105;28;20025;-47
2022/06/02 00:44:51;;;;;;;2.25;2.08;;;13.80;89.00;;;;;;5056237;28;20061;-44
2022/06/02 00:47:40;;;;;;;2.47;2.20;;;13.80;88.60;;;;;;5055763;28;20021;-44
2022/06/02 00:50:05;;;;;;;2.03;1.92;;;13.90;87.90;;;;;;5055815;28;20028;-44
2022/06/02 00:52:58;;;;;;;1.75;1.50;;;13.90;88.20;;;;;;5056005;28;20384;-47
2022/06/02 00:59:00;;;;;;;1.65;1.55;;;13.80;89.00;;;;;;5056176;28;20416;-43
2022/06/02 01:01:34;;;;;;;3.50;1.48;;;13.70;90.00;;;;;;5055949;28;20061;-44
2022/06/02 01:04:04;;;;;;;1.98;1.67;;;13.60;90.40;;;;;;5056173;28;20050;-45
2022/06/02 01:06:47;;;;;;;4.25;1.65;;;13.50;90.70;;;;;;5055778;28;20511;-43
2022/06/02 01:09:33;;;;;;;2.53;1.55;;;13.50;91.20;;;;;;5055281;28;20049;-43
2022/06/02 01:11:58;;;;;;;5.13;1.88;;;13.30;91.80;;;;;;5055560;28;20021;-43
2022/06/02 01:14:34;;;;;;;2.35;2.08;;;13.30;92.20;;;;;;5055540;28;20025;-47
2022/06/02 01:17:02;;;;;;;2.38;1.95;;;13.20;91.90;;;;;;5055335;28;20029;-44
2022/06/02 01:19:54;;;;;;;2.75;1.90;;;13.20;91.70;;;;;;5056009;28;20025;-47
2022/06/02 01:22:49;;;;;;;2.28;2.08;;;13.10;92.20;;;;;;5055432;28;20572;-47
2022/06/02 01:25:42;;;;;;;2.25;2.03;;;13.10;92.20;;;;;;5055680;28;20029;-44
2022/06/02 01:28:55;;;;;;;1.80;1.60;;;13.00;92.40;;;;;;5054658;28;20044;-42
2022/06/02 01:31:34;;;;;;;5.18;1.70;;;12.90;92.80;;;;;;5035247;28;20524;-42
2022/06/02 01:34:16;;;;;;;2.95;1.70;;;12.90;93.10;;;;;;5055147;28;20558;-42
2022/06/02 01:36:57;;;;;;;1.85;1.75;;;12.80;93.40;;;;;;5054692;28;20063;-47
2022/06/02 01:39:50;;;;;;;4.00;1.88;;;12.80;93.60;;;;;;5055174;28;20017;-44
2022/06/02 01:43:04;;;;;;;1.83;1.73;;;12.70;93.90;;;;;;5054751;28;20496;-44
2022/06/02 01:45:51;;;;;;;2.58;1.90;;;12.70;94.20;;;;;;5049459;28;20124;-45
2022/06/02 01:48:29;;;;;;;2.42;2.00;;;12.50;94.50;;;;;;5054381;28;20504;-45
2022/06/02 01:51:02;;;;;;;10.00;2.70;;;12.40;94.80;;;;;;5054564;28;20440;-46
2022/06/02 01:53:51;;;;;;;6.80;2.42;;;12.40;94.90;;;;;;5055045;28;20036;-46
2022/06/02 01:56:47;;;;;;;2.15;1.90;;;12.30;95.40;;;;;;5055021;28;20021;-42
2022/06/02 01:59:31;;;;;;;5.55;2.10;;;12.20;95.60;;;;;;5054090;28;20025;-45
2022/06/02 02:02:22;;;;;;;3.88;2.15;;;12.20;95.70;;;;;;5053828;28;20021;-43
2022/06/02 02:05:03;;;;;;;2.17;1.92;;;12.20;95.90;;;;;;5053924;28;20427;-46
2022/06/02 02:07:54;;;;;;;6.18;4.63;;;12.10;95.90;;;;;;5052639;28;20021;-46
2022/06/02 02:11:08;;;;;;;37.70;24.80;;;12.10;96.00;;;;;;5053766;28;20052;-43
2022/06/02 02:13:58;;;;;;;5.93;4.78;;;12.10;96.50;;;;;;5049112;28;20033;-44
2022/06/02 02:16:52;;;;;;;4.25;2.40;;;12.10;96.50;;;;;;5053888;28;20021;-43
2022/06/02 02:19:25;;;;;;;2.92;2.00;;;12.00;96.70;;;;;;5054144;28;20032;-45
2022/06/02 02:22:39;;;;;;;2.28;2.08;;;11.90;96.90;;;;;;5053763;28;20078;-47
2022/06/02 02:25:17;;;;;;;2.88;2.05;;;11.90;97.30;;;;;;5034337;28;20034;-43
2022/06/02 02:28:05;;;;;;;4.13;2.13;;;11.80;97.60;;;;;;5053841;28;20498;-45
2022/06/02 02:30:41;;;;;;;4.72;3.20;;;11.80;97.60;;;;;;5053438;28;20063;-47
2022/06/02 02:33:45;;;;;;;2.30;2.20;;;11.80;97.70;;;;;;5053614;28;20031;-44
2022/06/02 02:36:37;;;;;;;2.70;2.33;;;11.80;97.90;;;;;;5053501;28;20035;-44
2022/06/02 02:39:24;;;;;;;3.47;2.15;;;11.70;98.10;;;;;;5053489;28;20021;-44
2022/06/02 02:42:02;;;;;;;2.55;2.40;;;11.70;98.20;;;;;;5052293;28;20471;-43
2022/06/02 02:44:40;;;;;;;5.47;2.60;;;11.70;98.20;;;;;;5053959;28;20468;-45
2022/06/02 02:47:28;;;;;;;3.10;2.80;;;11.70;98.30;;;;;;5053422;28;20025;-46
2022/06/02 02:50:06;;;;;;;3.25;3.03;;;11.60;98.40;;;;;;5053459;28;20029;-44
2022/06/02 02:52:41;;;;;;;4.40;3.00;;;11.60;98.30;;;;;;5053512;28;20059;-43
2022/06/02 02:55:15;;;;;;;3.60;2.22;;;11.60;98.60;;;;;;5053280;28;20021;-44
2022/06/02 02:58:10;;;;;;;4.40;3.05;;;11.60;98.70;;;;;;5052582;28;20040;-45
2022/06/02 03:00:52;;;;;;;2.38;2.20;;;11.50;99.00;;;;;;5052056;28;20494;-45
2022/06/02 03:03:41;;;;;;;5.57;2.47;;;11.50;99.00;;;;;;5049750;28;20566;-46
2022/06/02 03:06:20;;;;;;;4.95;2.70;;;11.50;99.40;;;;;;5073324;28;20121;-45
2022/06/02 03:09:12;;;;;;;2.67;2.47;;;11.40;99.60;;;;;;5050028;28;20086;-45
2022/06/02 03:11:53;;;;;;;3.25;2.85;;;11.40;99.70;;;;;;5050561;28;20053;-45
2022/06/02 03:14:34;;;;;;;4.43;2.95;;;11.40;99.90;;;;;;5054052;28;20075;-43
2022/06/02 03:17:15;;;;;;;3.28;3.08;;;11.30;99.80;;;;;;5041727;28;20030;-43
2022/06/02 03:20:01;;;;;;;3.65;3.40;;;11.30;99.90;;;;;;5039975;28;20029;-43
2022/06/02 03:22:57;;;;;;;4.18;3.38;;;11.20;99.90;;;;;;5033585;28;20032;-44
2022/06/02 03:25:38;;;;;;;4.70;3.38;;;11.10;99.90;;;;;;5040234;28;20084;-43
2022/06/02 03:28:16;;;;;;;5.55;3.20;;;11.00;99.90;;;;;;5053815;28;20089;-47
2022/06/02 03:31:00;;;;;;;3.35;3.05;;;11.00;99.90;;;;;;5053298;28;20444;-44
2022/06/02 03:33:52;;;;;;;3.40;3.20;;;11.00;99.90;;;;;;5048134;28;20660;-43
2022/06/02 03:36:56;;;;;;;3.35;2.65;;;10.90;99.90;;;;;;5053274;28;20052;-44
2022/06/02 03:39:44;;;;;;;7.20;2.85;;;11.00;99.90;;;;;;5044146;28;20083;-44
2022/06/02 03:42:28;;;;;;;3.10;2.85;;;11.00;99.90;;;;;;5049475;28;20400;-44
2022/06/02 03:45:09;;;;;;;5.03;2.85;;;11.10;99.90;;;;;;5053209;28;20025;-43
2022/06/02 03:47:45;;;;;;;6.15;2.85;;;11.10;99.90;;;;;;5052937;28;20601;-44
2022/06/02 03:50:46;;;;;;;3.03;2.83;;;11.20;99.90;;;;;;5052951;28;20085;-44
2022/06/02 03:53:29;;;;;;;6.00;3.03;;;11.20;99.90;;;;;;5040225;28;20025;-44
2022/06/02 03:56:22;;;;;;;3.53;2.53;;;11.30;99.90;;;;;;5033226;28;20029;-44
2022/06/02 03:59:13;;;;;;;3.88;3.42;;;11.30;99.90;;;;;;5034994;28;20404;-44
2022/06/02 04:01:50;;;;;;;6.32;3.03;;;11.30;99.90;;;;;;5053438;28;20021;-46
2022/06/02 04:04:55;;;;;;;3.17;2.83;;;11.20;99.90;;;;;;5073034;28;20103;-46
2022/06/02 04:07:37;;;;;;;4.03;2.92;;;11.30;99.90;;;;;;5032909;28;20022;-45
2022/06/02 04:10:03;;;;;;;2.97;2.78;;;11.30;99.90;;;;;;5035597;28;20032;-44
2022/06/02 04:15:57;;;;;;;4.38;3.25;;;11.50;99.90;;;;;;5037022;28;20409;-46
2022/06/02 04:18:40;;;;;;;9.57;3.72;;;11.60;99.90;;;;;;5065209;28;20033;-44
2022/06/02 04:21:36;;;;;;;5.35;3.90;;;11.60;99.90;;;;;;5076987;28;20028;-44
2022/06/02 04:24:24;;;;;;;3.60;3.30;;;11.80;99.90;;;;;;5076774;28;20099;-44
2022/06/02 04:27:23;;;;;;;6.03;3.13;;;11.90;99.90;;;;;;5076632;28;20047;-44
2022/06/02 04:29:52;;;;;;;3.92;3.60;;;12.00;99.90;;;;;;5075062;23;20056;-45
2022/06/02 04:32:43;;;;;;;5.55;4.03;;;12.20;99.90;;;;;;5054669;28;20546;-47
2022/06/02 04:36:06;;;;;;;11.32;4.70;;;12.30;99.90;;;;;;5054940;28;20029;-43
2022/06/02 04:39:07;;;;;;;4.00;3.60;;;12.40;99.90;;;;;;5034313;28;20357;-44
2022/06/02 04:41:53;;;;;;;8.82;3.80;;;12.60;99.90;;;;;;5033072;28;20033;-40
2022/06/02 04:44:20;;;;;;;7.43;3.40;;;12.90;99.90;;;;;;5052296;28;20036;-44
2022/06/02 04:47:03;;;;;;;6.30;3.15;;;13.10;99.70;;;;;;5054823;28;20066;-45
2022/06/02 04:49:54;;;;;;;3.85;3.30;;;13.40;99.40;;;;;;5054650;28;20060;-46
2022/06/02 04:52:48;;;;;;;8.20;4.47;;;13.80;98.90;;;;;;5054564;28;20017;-43
2022/06/02 04:55:29;;;;;;;4.95;3.92;;;14.40;97.00;;;;;;5017292;28;20096;-49
2022/06/02 04:58:11;;;;;;;4.32;3.92;;;15.20;95.90;;;;;;5054112;28;20062;-45
2022/06/02 05:00:51;;;;;;;5.55;3.70;;;16.20;93.00;;;;;;5054602;28;20064;-48
2022/06/02 05:03:33;;;;;;;9.52;4.05;;;17.60;91.60;;;;;;5054449;28;20377;-47
2022/06/02 05:06:10;;;;;;;3.80;3.50;;;18.70;87.90;;;;;;5054378;28;20115;-51
2022/06/02 05:08:55;;;;;;;4.28;3.40;;;19.40;83.60;;;;;;5053891;28;20029;-46
2022/06/02 05:11:20;;;;;;;4.13;3.30;;;20.20;80.40;;;;;;5054336;28;20029;-44
2022/06/02 05:14:09;;;;;;;15.70;3.42;;;20.60;79.20;;;;;;5054158;28;20400;-43
2022/06/02 05:16:58;;;;;;;2.95;2.75;;;21.10;77.50;;;;;;5054318;28;20017;-44
2022/06/02 05:19:42;;;;;;;10.20;2.88;;;20.70;77.40;;;;;;5054109;28;20500;-46
2022/06/02 05:22:17;;;;;;;3.10;2.50;;;20.80;76.00;;;;;;5053252;28;20048;-44
2022/06/02 05:25:13;;;;;;;3.28;2.78;;;21.10;75.20;;;;;;5053900;28;20027;-46
2022/06/02 05:28:16;;;;;;;2.50;2.30;;;21.30;74.90;;;;;;5042164;28;20118;-46
2022/06/02 05:31:12;;;;;;;2.85;2.50;;;21.90;73.20;;;;;;5053706;28;20029;-44
2022/06/02 05:34:16;;;;;;;4.32;2.83;;;22.10;72.00;;;;;;5053099;28;20060;-46
2022/06/02 05:37:20;;;;;;;7.53;2.30;;;22.90;70.20;;;;;;5053679;28;20025;-43
2022/06/02 05:39:55;;;;;;;2.33;2.10;;;23.60;68.40;;;;;;5053955;28;20063;-45
2022/06/02 05:42:31;;;;;;;6.03;2.55;;;23.70;67.10;;;;;;5053758;28;20394;-46
2022/06/02 05:45:25;;;;;;;1.77;1.67;;;23.30;67.30;;;;;;5047702;28;20079;-46
2022/06/02 05:48:02;;;;;;;2.70;2.50;;;23.40;66.40;;;;;;5038665;28;20025;-46
2022/06/02 05:50:53;;;;;;;3.95;1.98;;;23.70;66.70;;;;;;5033897;28;20147;-46
2022/06/02 05:53:41;;;;;;;4.18;2.20;;;24.60;65.60;;;;;;5037182;28;20033;-47
2022/06/02 05:56:20;;;;;;;2.47;2.28;;;25.00;64.90;;;;;;5053257;28;20067;-51
2022/06/02 05:59:08;;;;;;;2.50;2.30;;;25.20;63.30;;;;;;5041988;28;20151;-47
2022/06/02 06:01:59;;;;;;;9.60;2.25;;;25.70;62.20;;;;;;5040375;28;20025;-48
2022/06/02 06:05:02;;;;;;;2.85;2.13;;;26.00;62.00;;;;;;5033986;28;20033;-44
2022/06/02 06:07:44;;;;;;;3.30;2.60;;;26.10;61.20;;;;;;5032931;28;20064;-47
2022/06/02 06:10:19;;;;;;;2.30;2.20;;;26.00;61.00;;;;;;5033078;28;20088;-50
2022/06/02 06:13:00;;;;;;;3.65;2.83;;;25.70;61.30;;;;;;5033174;28;20100;-47
2022/06/02 06:15:53;;;;;;;2.63;2.10;;;25.90;61.80;;;;;;5051235;28;20058;-49
2022/06/02 06:18:43;;;;;;;2.30;2.20;;;26.30;60.70;;;;;;5048019;28;20378;-44
2022/06/02 06:21:11;;;;;;;2.55;2.35;;;26.50;59.70;;;;;;5033047;28;20026;-45
2022/06/02 06:23:53;;;;;;;2.17;2.08;;;26.40;59.30;;;;;;5036088;28;20021;-42
2022/06/02 06:26:28;;;;;;;2.38;2.15;;;26.20;59.70;;;;;;5041273;28;20481;-48
2022/06/02 06:29:22;;;;;;;5.53;2.17;;;26.80;59.10;;;;;;5040777;28;20043;-46
2022/06/02 06:32:29;;;;;;;6.85;2.70;;;27.10;58.60;;;;;;5051957;28;20056;-45
2022/06/02 06:35:00;;;;;;;3.30;2.40;;;27.00;58.10;;;;;;5036775;28;20037;-47
2022/06/02 06:38:06;;;;;;;5.70;3.00;;;27.20;58.30;;;;;;5044177;28;20075;-43
2022/06/02 06:40:42;;;;;;;2.88;2.17;;;27.30;57.80;;;;;;5032789;28;20029;-44
2022/06/02 06:43:32;;;;;;;2.75;2.30;;;27.40;57.80;;;;;;5040557;28;20025;-46
2022/06/02 06:46:33;;;;;;;4.63;2.25;;;27.60;58.30;;;;;;5052370;28;20395;-40
2022/06/02 06:49:05;;;;;;;2.63;2.10;;;28.10;57.10;;;;;;5052003;28;20021;-43
2022/06/02 06:51:58;;;;;;;3.63;3.33;;;28.40;56.10;;;;;;5045931;28;20037;-41
2022/06/02 06:54:44;;;;;;;3.30;3.05;;;28.00;56.60;;;;;;5032367;28;20048;-46
2022/06/02 06:57:30;;;;;;;4.93;4.28;;;28.10;56.00;;;;;;5032157;28;20017;-48
2022/06/02 07:00:06;;;;;;;9.68;4.43;;;27.80;56.40;;;;;;5033480;28;20034;-48
2022/06/02 07:03:04;;;;;;;8.05;3.97;;;27.40;57.20;;;;;;5051190;28;20033;-41
2022/06/02 07:05:50;;;;;;;4.55;4.15;;;27.20;57.80;;;;;;5031941;28;20032;-45
2022/06/02 07:08:28;;;;;;;5.35;3.70;;;27.20;57.50;;;;;;5044506;28;20404;-53
2022/06/02 07:14:22;;;;;;;4.47;3.67;;;27.50;57.20;;;;;;5046824;28;20071;-45
2022/06/02 07:16:55;;;;;;;7.53;4.70;;;27.30;57.70;;;;;;5046971;28;20463;-45
2022/06/02 07:20:06;;;;;;;6.65;4.57;;;27.60;56.60;;;;;;5045909;28;20020;-44
2022/06/02 07:22:56;;;;;;;4.60;4.20;;;27.20;57.80;;;;;;5032066;28;20037;-48
2022/06/02 07:25:28;;;;;;;5.10;4.40;;;27.00;58.10;;;;;;5042874;28;20040;-49
2022/06/02 07:28:12;;;;;;;4.88;4.32;;;27.00;57.70;;;;;;5031438;28;20029;-41
2022/06/02 07:30:59;;;;;;;5.22;4.78;;;26.90;58.00;;;;;;5031563;28;20121;-40
2022/06/02 07:34:02;;;;;;;6.25;5.63;;;27.70;56.60;;;;;;5043124;28;20021;-50
2022/06/02 07:36:50;;;;;;;5.03;3.90;;;27.70;56.10;;;;;;5032753;28;20079;-46
2022/06/02 07:39:28;;;;;;;4.60;4.20;;;27.60;56.60;;;;;;5044312;28;20020;-45
2022/06/02 07:42:19;;;;;;;5.05;3.90;;;28.20;56.40;;;;;;5051340;28;20087;-51
2022/06/02 07:44:59;;;;;;;4.68;4.18;;;28.20;55.20;;;;;;5051199;28;20048;-40
2022/06/02 07:47:37;;;;;;;4.50;4.07;;;28.40;55.20;;;;;;5051289;28;20036;-44
2022/06/02 07:50:11;;;;;;;5.28;4.80;;;28.10;55.30;;;;;;5051004;28;20096;-45
2022/06/02 07:52:50;;;;;;;4.97;3.80;;;27.80;55.60;;;;;;5051200;28;20390;-46
2022/06/02 07:55:46;;;;;;;6.50;4.20;;;28.00;55.70;;;;;;5051741;28;20044;-47
2022/06/02 07:58:16;;;;;;;3.28;3.08;;;28.70;54.10;;;;;;5050982;28;20025;-43
2022/06/02 08:00:53;;;;;;;3.38;3.10;;;28.70;54.30;;;;;;5051553;28;20033;-43
2022/06/02 08:03:45;;;;;;;3.13;2.83;;;29.00;53.50;;;;;;5052420;28;20025;-44
2022/06/02 08:06:31;;;;;;;4.00;3.70;;;28.90;53.40;;;;;;5050215;28;20060;-46
2022/06/02 08:09:30;;;;;;;3.90;3.50;;;29.00;52.60;;;;;;5051065;28;20017;-40
2022/06/02 08:11:58;;;;;;;3.80;3.00;;;28.30;52.10;;;;;;5051129;28;20075;-45
2022/06/02 08:14:45;;;;;;;3.40;3.20;;;28.60;53.10;;;;;;5051272;28;20512;-46
2022/06/02 08:17:21;;;;;;;2.20;2.10;;;28.10;49.40;;;;;;5051068;28;20032;-44
2022/06/02 08:20:15;;;;;;;4.63;2.40;;;26.50;50.50;;;;;;5051303;28;20025;-46
2022/06/02 08:23:11;;;;;;;5.45;4.00;;;26.30;54.30;;;;;;5051203;28;20075;-47
2022/06/02 08:26:09;;;;;;;4.60;4.03;;;26.40;55.80;;;;;;5051490;28;20116;-40
2022/06/02 08:29:05;;;;;;;3.47;3.17;;;25.90;56.60;;;;;;5041759;28;20174;-41
2022/06/02 08:31:49;;;;;;;4.00;3.70;;;25.10;57.40;;;;;;5051175;28;20017;-41
2022/06/02 08:34:21;;;;;;;3.70;3.40;;;24.80;58.60;;;;;;5051684;28;20104;-46
2022/06/02 08:36:52;;;;;;;6.97;3.25;;;25.00;58.80;;;;;;5051756;28;20391;-45
2022/06/02 08:39:38;;;;;;;5.75;3.47;;;25.20;57.80;;;;;;5051940;28;20024;-49
2022/06/02 08:42:23;;;;;;;5.55;3.85;;;24.90;58.20;;;;;;5051075;28;20099;-48
2022/06/02 08:44:49;;;;;;;5.75;3.95;;;23.90;60.10;;;;;;5051231;28;20078;-48
2022/06/02 08:47:33;;;;;;;4.88;3.45;;;23.50;60.10;;;;;;5050792;28;20029;-44
2022/06/02 08:50:33;;;;;;;5.40;4.20;;;23.10;60.40;;;;;;5051035;28;20048;-45
2022/06/02 08:53:26;;;;;;;4.35;3.60;;;22.90;61.40;;;;;;5049669;28;20110;-52
2022/06/02 08:56:24;;;;;;;5.28;3.60;;;22.70;61.90;;;;;;5051310;28;20021;-45
2022/06/02 08:59:08;;;;;;;7.68;4.53;;;22.50;62.40;;;;;;5054447;28;20442;-47
2022/06/02 09:02:02;;;;;;;4.00;3.60;;;22.60;61.70;;;;;;5054469;28;20036;-46
2022/06/02 09:04:55;;;;;;;4.47;4.03;;;22.50;62.40;;;;;;5054634;28;20080;-43
2022/06/02 09:07:23;;;;;;;4.78;3.97;;;22.80;61.70;;;;;;5054106;28;20100;-40
2022/06/02 09:10:24;;;;;;;6.45;3.40;;;22.80;62.30;;;;;;5054156;28;20032;-43
2022/06/02 09:13:21;;;;;;;4.05;3.60;;;22.90;61.90;;;;;;5054224;28;20048;-43
2022/06/02 09:15:59;;;;;;;4.65;3.33;;;22.50;62.00;;;;;;5054344;28;20383;-49
2022/06/02 09:18:53;;;;;;;3.70;3.40;;;22.60;62.10;;;;;;5053765;28;20025;-45
2022/06/02 09:21:29;;;;;;;3.08;2.88;;;22.50;62.50;;;;;;5054146;28;20132;-48
2022/06/02 09:24:23;;;;;;;4.03;2.95;;;22.40;61.70;;;;;;5054185;28;20021;-47
2022/06/02 09:27:24;;;;;;;5.40;3.22;;;22.10;61.90;;;;;;5053978;28;20123;-42
2022/06/02 09:29:57;;;;;;;6.07;3.63;;;21.90;62.50;;;;;;5053617;28;20025;-45
2022/06/02 09:32:28;;;;;;;6.93;3.45;;;21.50;62.90;;;;;;5053992;28;20044;-49
2022/06/02 09:35:09;;;;;;;7.55;3.25;;;21.60;63.50;;;;;;5053373;28;20104;-41
2022/06/02 09:38:14;;;;;;;3.55;3.25;;;21.60;63.30;;;;;;5053443;28;20029;-44
2022/06/02 09:40:46;;;;;;;3.72;3.42;;;21.60;64.10;;;;;;5053946;28;20055;-42
2022/06/02 09:43:32;;;;;;;5.63;3.55;;;21.60;63.50;;;;;;5053681;28;20025;-47
2022/06/02 09:46:04;;;;;;;;;;;21.20;63.40;;;;;;5054118;28;20120;-48
2022/06/02 09:49:04;;;;;;;51.00;33.67;;;21.20;63.60;;;;;;5051350;28;19904;-45
2022/06/02 09:51:47;;;;;;;36.65;27.27;;;21.50;63.20;;;;;;5044193;28;20159;-46
2022/06/02 09:54:37;;;;;;;17.27;12.20;;;21.80;63.20;;;;;;5053252;28;20032;-44
2022/06/02 10:00:11;;;;;;;;;;;22.20;61.70;;;;;;5053444;28;20035;-42
2022/06/02 10:02:55;;;;;;;3.10;2.85;;;22.10;61.70;;;;;;5053170;28;19905;-44
2022/06/02 10:05:39;;;;;;;3.95;3.40;;;22.10;62.30;;;;;;5053209;28;20203;-44
2022/06/02 10:08:48;;;;;;;2.88;2.67;;;21.90;62.00;;;;;;5052373;28;20033;-46
2022/06/02 10:11:51;;;;;;;3.85;2.90;;;21.60;62.20;;;;;;5042731;28;20041;-43
2022/06/02 10:14:25;;;;;;;3.47;3.00;;;21.40;62.60;;;;;;5052787;28;20040;-46
2022/06/02 10:17:35;;;;;;;3.60;2.88;;;21.40;62.80;;;;;;5052933;28;20035;-44
2022/06/02 10:20:18;;;;;;;3.55;2.92;;;21.60;62.20;;;;;;5051658;28;20056;-49
2022/06/02 10:23:05;;;;;;;7.28;3.25;;;21.70;62.30;;;;;;5052759;28;20388;-44
2022/06/02 10:25:53;;;;;;;3.30;3.00;;;21.60;62.90;;;;;;5053244;28;20013;-44
2022/06/02 10:28:33;;;;;;;3.42;2.80;;;21.30;64.10;;;;;;5053053;28;20642;-44
2022/06/02 10:31:19;;;;;;;3.40;2.92;;;21.20;64.30;;;;;;5052822;28;20037;-45
2022/06/02 10:34:16;;;;;;;3.80;2.40;;;21.30;63.30;;;;;;5052657;28;20447;-47
2022/06/02 10:37:02;;;;;;;4.78;2.90;;;21.40;63.90;;;;;;5051751;28;20036;-47
2022/06/02 10:39:37;;;;;;;3.58;3.03;;;21.10;64.70;;;;;;5052740;28;20029;-50
2022/06/02 10:42:19;;;;;;;4.68;2.67;;;20.90;63.70;;;;;;5052730;28;20496;-49
2022/06/02 10:45:18;;;;;;;3.35;2.65;;;20.80;63.40;;;;;;5052711;28;20040;-44
2022/06/02 10:48:05;;;;;;;4.45;2.55;;;21.00;63.50;;;;;;5056426;28;20028;-50
2022/06/02 10:50:42;;;;;;;3.38;2.63;;;20.90;63.90;;;;;;5051383;28;20029;-50
2022/06/02 10:53:51;;;;;;;2.58;2.38;;;21.00;64.50;;;;;;5052885;28;20032;-44
2022/06/02 10:56:21;;;;;;;6.75;4.78;;;21.00;64.70;;;;;;5030508;28;20041;-48
2022/06/02 10:59:01;;;;;;;3.03;2.72;;;20.90;61.40;;;;;;5029986;28;20078;-47
2022/06/02 11:02:03;;;;;;;3.00;2.78;;;20.80;63.40;;;;;;5044365;28;20112;-45
2022/06/02 11:04:47;;;;;;;3.13;2.83;;;20.80;63.10;;;;;;5052196;28;20132;-44
2022/06/02 11:07:34;;;;;;;8.88;3.50;;;20.80;64.40;;;;;;5052529;28;20017;-46
2022/06/02 11:10:19;;;;;;;4.75;2.80;;;20.80;64.60;;;;;;5052083;28;20131;-41
2022/06/02 11:13:09;;;;;;;2.88;2.25;;;20.80;65.00;;;;;;5051761;28;20095;-43
2022/06/02 11:16:16;;;;;;;5.38;2.50;;;21.00;64.20;;;;;;5052031;28;20017;-45
2022/06/02 11:19:11;;;;;;;2.60;2.40;;;21.30;63.20;;;;;;5051054;28;20036;-45
2022/06/02 11:21:42;;;;;;;2.88;2.60;;;21.30;63.20;;;;;;5047188;28;20429;-45
2022/06/02 11:24:08;;;;;;;2.78;2.58;;;21.40;63.90;;;;;;5051841;28;20029;-47
2022/06/02 11:27:07;;;;;;;7.47;2.80;;;21.60;62.90;;;;;;5051609;28;20025;-43
2022/06/02 11:30:03;;;;;;;2.78;2.58;;;21.70;62.60;;;;;;5051433;28;20025;-44
2022/06/02 11:32:41;;;;;;;4.55;1.98;;;21.60;62.00;;;;;;5051731;28;20021;-43
2022/06/02 11:35:43;;;;;;;2.47;1.90;;;21.50;63.50;;;;;;5051631;28;20056;-43
2022/06/02 11:38:43;;;;;;;8.57;2.40;;;21.50;62.50;;;;;;5051357;28;20036;-47
2022/06/02 11:41:30;;;;;;;2.25;1.88;;;21.30;62.20;;;;;;5047355;28;20098;-47
2022/06/02 11:44:13;;;;;;;4.00;1.80;;;21.40;61.70;;;;;;5051601;28;20488;-43
2022/06/02 11:47:07;;;;;;;4.70;2.08;;;21.50;60.80;;;;;;5051622;28;20036;-44
2022/06/02 11:49:57;;;;;;;2.35;2.15;;;21.70;61.30;;;;;;5051216;28;20074;-44
2022/06/02 11:52:46;;;;;;;2.00;1.70;;;21.70;60.90;;;;;;5051203;28;20392;-45
2022/06/02 11:55:42;;;;;;;1.48;1.35;;;21.60;61.50;;;;;;5051486;28;20025;-46
2022/06/02 11:58:56;;;;;;;1.75;1.65;;;21.60;61.40;;;;;;5051032;28;20388;-45
2022/06/02 12:01:34;;;;;;;4.82;1.95;;;21.70;60.50;;;;;;5051537;23;20140;-50
2022/06/02 12:04:35;;;;;;;18.25;13.50;;;21.80;61.40;;;;;;5032218;28;20444;-47
2022/06/02 12:07:37;;;;;;;12.43;5.85;;;21.70;62.10;;;;;;5031957;28;20400;-44
2022/06/02 12:10:15;;;;;;;3.55;2.03;;;21.50;61.70;;;;;;5031901;28;20030;-44
2022/06/02 12:12:56;;;;;;;3.35;2.13;;;21.40;63.50;;;;;;5030427;28;20037;-43
2022/06/02 12:15:34;;;;;;;3.72;1.70;;;21.50;62.00;;;;;;5032126;28;20026;-47
2022/06/02 12:18:39;;;;;;;2.45;1.70;;;21.40;63.40;;;;;;5032152;28;20013;-49
2022/06/02 12:21:30;;;;;;;2.95;1.80;;;21.60;63.10;;;;;;5031875;28;20037;-44
2022/06/02 12:24:01;;;;;;;2.40;1.63;;;21.40;61.00;;;;;;5030815;28;20485;-47
2022/06/02 12:26:41;;;;;;;2.45;2.13;;;21.30;61.90;;;;;;5030596;28;20397;-49
2022/06/02 12:29:10;;;;;;;1.33;1.33;;;21.20;61.60;;;;;;5031737;28;20377;-47
2022/06/02 12:32:00;;;;;;;3.35;1.65;;;21.10;61.40;;;;;;5033768;28;20025;-47
2022/06/02 12:34:50;;;;;;;4.72;1.45;;;21.10;61.30;;;;;;5035773;28;20392;-47
2022/06/02 12:37:46;;;;;;;1.38;1.30;;;21.10;59.90;;;;;;5035430;28;20151;-47
2022/06/02 12:40:19;;;;;;;1.35;1.25;;;21.00;59.10;;;;;;5035461;28;20028;-46
2022/06/02 12:43:25;;;;;;;2.22;1.38;;;21.00;57.20;;;;;;5035326;28;20029;-46
2022/06/02 12:46:17;;;;;;;;;;;20.90;57.40;;;;;;5035981;28;20033;-47
2022/06/02 12:49:20;;;;;;;3.80;1.10;;;21.00;57.30;;;;;;5026650;28;19905;-49
2022/06/02 12:52:22;;;;;;;1.27;1.10;;;21.00;57.20;;;;;;5034967;28;20038;-48
2022/06/02 12:55:05;;;;;;;0.80;0.80;;;21.10;58.10;;;;;;5034964;28;20021;-48
2022/06/02 12:57:59;;;;;;;2.25;1.08;;;21.10;59.00;;;;;;5033305;28;20377;-46
2022/06/02 13:00:45;;;;;;;1.85;0.85;;;21.20;58.70;;;;;;5035500;28;20125;-46
2022/06/02 13:03:29;;;;;;;2.58;0.98;;;21.30;58.10;;;;;;5035213;28;20087;-50
2022/06/02 13:06:14;;;;;;;3.00;0.93;;;21.40;57.80;;;;;;5035396;28;20033;-46
2022/06/02 13:09:26;;;;;;;1.63;1.10;;;21.40;57.20;;;;;;5034957;28;20031;-46
2022/06/02 13:12:00;;;;;;;0.95;0.80;;;21.50;55.90;;;;;;5018495;28;20132;-46
2022/06/02 13:14:52;;;;;;;8.20;1.13;;;21.60;56.10;;;;;;5034996;28;20033;-45
2022/06/02 13:17:32;;;;;;;1.38;0.90;;;21.50;56.00;;;;;;5033455;28;20018;-47
2022/06/02 13:20:31;;;;;;;2.63;1.10;;;21.40;56.10;;;;;;5034981;28;20477;-46
2022/06/02 13:23:23;;;;;;;4.53;1.20;;;21.40;55.10;;;;;;5034845;28;20031;-45
2022/06/02 13:26:16;;;;;;;0.93;0.93;;;21.30;55.10;;;;;;5033708;28;20247;-51
2022/06/02 13:29:03;;;;;;;3.13;0.68;;;21.40;54.40;;;;;;5034365;28;20025;-48
2022/06/02 13:31:52;;;;;;;5.07;0.90;;;21.30;53.90;;;;;;5034354;28;20021;-50
2022/06/02 13:34:45;;;;;;;0.73;0.73;;;21.20;53.00;;;;;;5034741;28;20029;-48
2022/06/02 13:37:33;;;;;;;3.58;0.80;;;21.20;54.10;;;;;;5034443;28;20025;-50
2022/06/02 13:40:19;;;;;;;0.70;0.70;;;21.30;54.70;;;;;;5034462;28;20029;-46
2022/06/02 13:43:16;;;;;;;1.60;0.90;;;21.50;54.70;;;;;;5033736;28;20061;-45
2022/06/02 13:45:41;;;;;;;6.07;1.20;;;21.50;54.90;;;;;;5034291;28;20021;-45
2022/06/02 13:48:34;;;;;;;1.10;0.80;;;21.60;55.10;;;;;;5033836;28;20036;-46
2022/06/02 13:51:19;;;;;;;1.27;1.05;;;21.70;55.10;;;;;;5034184;28;20029;-50
2022/06/02 13:57:31;;;;;;;3.83;0.80;;;21.60;55.40;;;;;;5033745;28;20337;-51
2022/06/02 14:00:07;;;;;;;0.70;0.70;;;21.50;56.70;;;;;;5034118;28;20100;-50
2022/06/02 14:02:56;;;;;;;3.67;1.00;;;21.50;55.90;;;;;;5034175;28;20025;-48
2022/06/02 14:05:41;;;;;;;3.45;0.70;;;21.50;55.90;;;;;;5034045;28;20041;-47
2022/06/02 14:08:36;;;;;;;1.67;0.80;;;21.60;55.10;;;;;;5034196;28;20037;-50
2022/06/02 14:11:48;;;;;;;12.60;2.60;;;21.70;56.10;;;;;;5024628;28;20042;-47
2022/06/02 14:14:52;;;;;;;1.55;0.70;;;21.80;56.20;;;;;;5034341;28;20026;-51
2022/06/02 14:17:49;;;;;;;1.20;0.80;;;21.80;54.70;;;;;;5033767;28;20026;-51
2022/06/02 14:20:52;;;;;;;0.57;0.55;;;21.80;55.50;;;;;;5034037;28;20388;-45
2022/06/02 14:23:26;;;;;;;2.35;0.57;;;21.80;54.30;;;;;;5034111;28;20029;-48
2022/06/02 14:26:02;;;;;;;2.83;0.70;;;22.00;55.50;;;;;;5033806;28;20032;-46
2022/06/02 14:28:37;;;;;;;;;;;21.90;55.50;;;;;;5033974;28;20385;-45
2022/06/02 14:31:33;;;;;;;2.90;1.00;;;21.80;55.00;;;;;;5033554;28;19935;-50
2022/06/02 14:34:17;;;;;;;4.90;0.85;;;21.80;54.80;;;;;;5033717;28;20017;-47
2022/06/02 14:37:22;;;;;;;3.33;0.98;;;21.70;54.30;;;;;;5033199;28;20067;-49
2022/06/02 14:40:12;;;;;;;0.75;0.73;;;21.70;54.70;;;;;;5022164;28;20076;-49
2022/06/02 14:43:06;;;;;;;1.15;1.10;;;21.80;54.80;;;;;;5033449;28;20033;-47
2022/06/02 14:46:00;;;;;;;3.13;0.80;;;21.90;54.00;;;;;;5033123;28;20156;-46